sensor_id;sensor_type;location;lat;lon;timestamp;P1;durP1;ratioP1;P2;durP2;ratioP2
18838;SDS011;9548;56.920;14.804;2023-02-15T00:01:59;10.90;;;4.68;;
18838;SDS011;9548;56.920;14.804;2023-02-15T00:04:26;10.93;;;4.80;;
18838;SDS011;9548;56.920;14.804;2023-02-15T00:07:13;11.77;;;4.28;;
18838;SDS011;9548;56.920;14.804;2023-02-15T00:09:40;7.78;;;4.57;;
18838;SDS011;9548;56.920;14.804;2023-02-15T00:12:08;9.02;;;4.57;;
18838;SDS011;9548;56.920;14.804;2023-02-15T00:14:36;10.13;;;5.20;;
18838;SDS011;9548;56.920;14.804;2023-02-15T00:17:03;8.15;;;5.10;;
18838;SDS011;9548;56.920;14.804;2023-02-15T00:19:30;9.00;;;5.00;;
18838;SDS011;9548;56.920;14.804;2023-02-15T00:21:57;8.43;;;4.80;;
18838;SDS011;9548;56.920;14.804;2023-02-15T00:24:25;10.82;;;5.18;;
18838;SDS011;9548;56.920;14.804;2023-02-15T00:26:52;10.10;;;4.75;;
18838;SDS011;9548;56.920;14.804;2023-02-15T00:29:20;9.93;;;4.60;;
18838;SDS011;9548;56.920;14.804;2023-02-15T00:31:47;12.65;;;5.60;;
18838;SDS011;9548;56.920;14.804;2023-02-15T00:34:15;9.57;;;5.25;;
18838;SDS011;9548;56.920;14.804;2023-02-15T00:36:43;10.40;;;5.68;;
18838;SDS011;9548;56.920;14.804;2023-02-15T00:39:11;9.95;;;5.32;;
18838;SDS011;9548;56.920;14.804;2023-02-15T00:41:40;10.80;;;5.38;;
18838;SDS011;9548;56.920;14.804;2023-02-15T00:44:07;12.30;;;5.30;;
18838;SDS011;9548;56.920;14.804;2023-02-15T00:46:35;14.60;;;5.63;;
18838;SDS011;9548;56.920;14.804;2023-02-15T00:49:02;11.63;;;5.45;;
18838;SDS011;9548;56.920;14.804;2023-02-15T00:54:51;9.52;;;5.07;;
18838;SDS011;9548;56.920;14.804;2023-02-15T00:57:20;14.20;;;5.55;;
18838;SDS011;9548;56.920;14.804;2023-02-15T04:22:06;17.45;;;8.05;;
18838;SDS011;9548;56.920;14.804;2023-02-15T04:24:50;16.93;;;7.40;;
18838;SDS011;9548;56.920;14.804;2023-02-15T04:27:35;16.85;;;8.13;;
18838;SDS011;9548;56.920;14.804;2023-02-15T04:30:02;16.27;;;8.10;;
18838;SDS011;9548;56.920;14.804;2023-02-15T04:32:30;18.30;;;7.95;;
18838;SDS011;9548;56.920;14.804;2023-02-15T04:34:57;16.85;;;7.97;;
18838;SDS011;9548;56.920;14.804;2023-02-15T04:37:25;16.92;;;7.80;;
18838;SDS011;9548;56.920;14.804;2023-02-15T04:39:52;14.63;;;7.85;;
18838;SDS011;9548;56.920;14.804;2023-02-15T04:42:19;16.00;;;8.10;;
18838;SDS011;9548;56.920;14.804;2023-02-15T04:44:46;16.52;;;8.30;;
18838;SDS011;9548;56.920;14.804;2023-02-15T04:47:13;20.42;;;8.18;;
18838;SDS011;9548;56.920;14.804;2023-02-15T04:49:40;24.90;;;10.40;;
18838;SDS011;9548;56.920;14.804;2023-02-15T04:52:07;18.02;;;9.05;;
18838;SDS011;9548;56.920;14.804;2023-02-15T04:54:35;18.45;;;8.07;;
18838;SDS011;9548;56.920;14.804;2023-02-15T04:57:03;14.90;;;8.02;;
18838;SDS011;9548;56.920;14.804;2023-02-15T04:59:30;19.42;;;8.07;;
18838;SDS011;9548;56.920;14.804;2023-02-15T05:01:57;16.77;;;8.57;;
18838;SDS011;9548;56.920;14.804;2023-02-15T05:04:24;19.30;;;8.02;;
18838;SDS011;9548;56.920;14.804;2023-02-15T05:06:51;15.98;;;7.70;;
18838;SDS011;9548;56.920;14.804;2023-02-15T05:09:18;17.20;;;8.23;;
18838;SDS011;9548;56.920;14.804;2023-02-15T05:11:47;18.30;;;8.07;;
18838;SDS011;9548;56.920;14.804;2023-02-15T05:14:14;19.45;;;8.23;;
18838;SDS011;9548;56.920;14.804;2023-02-15T05:16:40;15.45;;;8.05;;
18838;SDS011;9548;56.920;14.804;2023-02-15T05:19:07;17.50;;;8.65;;
18838;SDS011;9548;56.920;14.804;2023-02-15T05:21:34;19.50;;;8.18;;
18838;SDS011;9548;56.920;14.804;2023-02-15T05:24:01;18.60;;;9.40;;
18838;SDS011;9548;56.920;14.804;2023-02-15T05:26:50;17.73;;;8.18;;
18838;SDS011;9548;56.920;14.804;2023-02-15T05:29:34;17.33;;;8.50;;
18838;SDS011;9548;56.920;14.804;2023-02-15T05:32:02;16.92;;;8.80;;
18838;SDS011;9548;56.920;14.804;2023-02-15T05:34:29;16.55;;;8.73;;
18838;SDS011;9548;56.920;14.804;2023-02-15T05:36:56;16.75;;;8.32;;
18838;SDS011;9548;56.920;14.804;2023-02-15T05:39:23;17.10;;;8.80;;
18838;SDS011;9548;56.920;14.804;2023-02-15T05:41:51;17.20;;;8.73;;
18838;SDS011;9548;56.920;14.804;2023-02-15T05:44:18;16.58;;;9.00;;
18838;SDS011;9548;56.920;14.804;2023-02-15T05:46:45;18.92;;;9.38;;
18838;SDS011;9548;56.920;14.804;2023-02-15T05:49:12;19.33;;;9.00;;
18838;SDS011;9548;56.920;14.804;2023-02-15T05:51:38;19.13;;;8.65;;
18838;SDS011;9548;56.920;14.804;2023-02-15T05:54:06;21.77;;;8.60;;
18838;SDS011;9548;56.920;14.804;2023-02-15T05:56:33;20.90;;;9.57;;
18838;SDS011;9548;56.920;14.804;2023-02-15T05:59:01;20.20;;;8.70;;
18838;SDS011;9548;56.920;14.804;2023-02-15T06:01:28;18.73;;;8.83;;
18838;SDS011;9548;56.920;14.804;2023-02-15T06:03:56;18.60;;;9.35;;
18838;SDS011;9548;56.920;14.804;2023-02-15T06:06:23;19.95;;;9.40;;
18838;SDS011;9548;56.920;14.804;2023-02-15T06:08:50;19.05;;;10.02;;
18838;SDS011;9548;56.920;14.804;2023-02-15T06:11:17;19.50;;;9.48;;
18838;SDS011;9548;56.920;14.804;2023-02-15T06:13:44;22.30;;;9.68;;
18838;SDS011;9548;56.920;14.804;2023-02-15T06:16:12;19.40;;;9.63;;
18838;SDS011;9548;56.920;14.804;2023-02-15T06:18:40;19.70;;;9.85;;
18838;SDS011;9548;56.920;14.804;2023-02-15T06:21:07;25.50;;;9.50;;
18838;SDS011;9548;56.920;14.804;2023-02-15T06:23:35;26.85;;;10.20;;
18838;SDS011;9548;56.920;14.804;2023-02-15T06:26:01;21.20;;;9.68;;
18838;SDS011;9548;56.920;14.804;2023-02-15T06:28:28;18.95;;;9.75;;
18838;SDS011;9548;56.920;14.804;2023-02-15T06:30:55;20.30;;;9.93;;
18838;SDS011;9548;56.920;14.804;2023-02-15T06:33:23;24.70;;;9.77;;
18838;SDS011;9548;56.920;14.804;2023-02-15T06:35:50;21.50;;;10.65;;
18838;SDS011;9548;56.920;14.804;2023-02-15T06:38:17;25.35;;;10.23;;
18838;SDS011;9548;56.920;14.804;2023-02-15T06:40:44;27.85;;;11.40;;
18838;SDS011;9548;56.920;14.804;2023-02-15T06:43:11;28.08;;;11.27;;
18838;SDS011;9548;56.920;14.804;2023-02-15T06:45:38;33.40;;;11.20;;
18838;SDS011;9548;56.920;14.804;2023-02-15T06:48:05;30.02;;;13.20;;
18838;SDS011;9548;56.920;14.804;2023-02-15T06:50:34;27.95;;;10.70;;
18838;SDS011;9548;56.920;14.804;2023-02-15T06:53:01;22.13;;;11.07;;
18838;SDS011;9548;56.920;14.804;2023-02-15T06:55:29;26.83;;;11.00;;
18838;SDS011;9548;56.920;14.804;2023-02-15T06:57:55;24.77;;;10.93;;
18838;SDS011;9548;56.920;14.804;2023-02-15T07:00:22;23.55;;;11.65;;
18838;SDS011;9548;56.920;14.804;2023-02-15T07:02:52;23.77;;;10.32;;
18838;SDS011;9548;56.920;14.804;2023-02-15T07:05:22;39.75;;;10.95;;
18838;SDS011;9548;56.920;14.804;2023-02-15T07:07:51;23.35;;;10.02;;
18838;SDS011;9548;56.920;14.804;2023-02-15T07:10:18;19.40;;;10.38;;
18838;SDS011;9548;56.920;14.804;2023-02-15T07:12:45;24.35;;;10.48;;
18838;SDS011;9548;56.920;14.804;2023-02-15T07:15:12;22.05;;;10.40;;
18838;SDS011;9548;56.920;14.804;2023-02-15T07:17:40;22.42;;;10.70;;
18838;SDS011;9548;56.920;14.804;2023-02-15T07:20:09;19.75;;;10.70;;
18838;SDS011;9548;56.920;14.804;2023-02-15T07:22:37;22.52;;;10.82;;
18838;SDS011;9548;56.920;14.804;2023-02-15T07:25:07;25.55;;;11.07;;
18838;SDS011;9548;56.920;14.804;2023-02-15T07:27:35;23.20;;;10.73;;
18838;SDS011;9548;56.920;14.804;2023-02-15T07:30:03;25.33;;;11.30;;
18838;SDS011;9548;56.920;14.804;2023-02-15T07:32:31;35.00;;;10.93;;
18838;SDS011;9548;56.920;14.804;2023-02-15T07:34:58;25.95;;;11.57;;
18838;SDS011;9548;56.920;14.804;2023-02-15T07:37:26;25.87;;;12.03;;
18838;SDS011;9548;56.920;14.804;2023-02-15T07:39:53;33.88;;;12.80;;
18838;SDS011;9548;56.920;14.804;2023-02-15T07:42:22;23.55;;;11.55;;
18838;SDS011;9548;56.920;14.804;2023-02-15T07:44:49;28.17;;;12.77;;
18838;SDS011;9548;56.920;14.804;2023-02-15T07:47:16;24.17;;;12.43;;
18838;SDS011;9548;56.920;14.804;2023-02-15T07:49:43;29.17;;;12.07;;
18838;SDS011;9548;56.920;14.804;2023-02-15T07:52:10;26.75;;;11.68;;
18838;SDS011;9548;56.920;14.804;2023-02-15T07:54:37;23.90;;;12.77;;
18838;SDS011;9548;56.920;14.804;2023-02-15T07:57:04;26.35;;;12.23;;
18838;SDS011;9548;56.920;14.804;2023-02-15T07:59:32;26.92;;;12.55;;
18838;SDS011;9548;56.920;14.804;2023-02-15T08:01:59;22.75;;;11.13;;
18838;SDS011;9548;56.920;14.804;2023-02-15T08:04:26;26.25;;;11.40;;
18838;SDS011;9548;56.920;14.804;2023-02-15T08:06:53;23.08;;;11.63;;
18838;SDS011;9548;56.920;14.804;2023-02-15T08:09:21;25.00;;;11.93;;
18838;SDS011;9548;56.920;14.804;2023-02-15T08:11:48;25.57;;;11.80;;
18838;SDS011;9548;56.920;14.804;2023-02-15T08:14:15;27.67;;;11.80;;
18838;SDS011;9548;56.920;14.804;2023-02-15T08:16:45;21.92;;;10.73;;
18838;SDS011;9548;56.920;14.804;2023-02-15T08:19:15;22.55;;;11.18;;
18838;SDS011;9548;56.920;14.804;2023-02-15T08:21:45;22.07;;;10.47;;
18838;SDS011;9548;56.920;14.804;2023-02-15T08:24:13;24.20;;;11.45;;
18838;SDS011;9548;56.920;14.804;2023-02-15T08:26:42;29.77;;;10.70;;
18838;SDS011;9548;56.920;14.804;2023-02-15T08:29:12;22.15;;;9.95;;
18838;SDS011;9548;56.920;14.804;2023-02-15T08:31:39;22.90;;;11.00;;
18838;SDS011;9548;56.920;14.804;2023-02-15T08:34:08;22.67;;;9.87;;
18838;SDS011;9548;56.920;14.804;2023-02-15T08:36:36;22.90;;;10.32;;
18838;SDS011;9548;56.920;14.804;2023-02-15T08:39:04;22.90;;;10.35;;
18838;SDS011;9548;56.920;14.804;2023-02-15T08:41:33;21.73;;;10.02;;
18838;SDS011;9548;56.920;14.804;2023-02-15T08:44:02;22.40;;;9.93;;
18838;SDS011;9548;56.920;14.804;2023-02-15T08:46:30;21.38;;;9.60;;
18838;SDS011;9548;56.920;14.804;2023-02-15T08:48:59;21.90;;;9.45;;
18838;SDS011;9548;56.920;14.804;2023-02-15T08:51:28;19.33;;;9.38;;
18838;SDS011;9548;56.920;14.804;2023-02-15T08:53:56;20.80;;;8.90;;
18838;SDS011;9548;56.920;14.804;2023-02-15T08:56:26;22.58;;;9.10;;
18838;SDS011;9548;56.920;14.804;2023-02-15T08:58:53;25.33;;;10.82;;
18838;SDS011;9548;56.920;14.804;2023-02-15T09:01:22;22.55;;;9.48;;
18838;SDS011;9548;56.920;14.804;2023-02-15T09:03:51;22.08;;;9.85;;
18838;SDS011;9548;56.920;14.804;2023-02-15T09:06:23;24.23;;;9.63;;
18838;SDS011;9548;56.920;14.804;2023-02-15T09:08:53;18.77;;;9.03;;
18838;SDS011;9548;56.920;14.804;2023-02-15T09:11:20;20.37;;;9.17;;
18838;SDS011;9548;56.920;14.804;2023-02-15T09:13:49;19.50;;;8.60;;
18838;SDS011;9548;56.920;14.804;2023-02-15T09:16:18;19.85;;;9.07;;
18838;SDS011;9548;56.920;14.804;2023-02-15T09:18:45;22.55;;;8.38;;
18838;SDS011;9548;56.920;14.804;2023-02-15T09:21:13;22.90;;;8.97;;
18838;SDS011;9548;56.920;14.804;2023-02-15T09:23:41;19.27;;;8.73;;
18838;SDS011;9548;56.920;14.804;2023-02-15T09:26:10;20.13;;;9.00;;
18838;SDS011;9548;56.920;14.804;2023-02-15T09:28:39;22.38;;;9.10;;
18838;SDS011;9548;56.920;14.804;2023-02-15T09:31:07;21.67;;;8.80;;
18838;SDS011;9548;56.920;14.804;2023-02-15T09:33:36;22.20;;;7.65;;
18838;SDS011;9548;56.920;14.804;2023-02-15T09:36:04;23.17;;;8.63;;
18838;SDS011;9548;56.920;14.804;2023-02-15T09:38:32;23.05;;;9.02;;
18838;SDS011;9548;56.920;14.804;2023-02-15T09:41:03;18.60;;;8.38;;
18838;SDS011;9548;56.920;14.804;2023-02-15T09:43:55;18.45;;;8.23;;
18838;SDS011;9548;56.920;14.804;2023-02-15T09:46:38;20.75;;;8.38;;
18838;SDS011;9548;56.920;14.804;2023-02-15T09:49:19;19.17;;;8.27;;
18838;SDS011;9548;56.920;14.804;2023-02-15T09:52:06;25.42;;;8.90;;
18838;SDS011;9548;56.920;14.804;2023-02-15T09:54:53;19.23;;;8.35;;
18838;SDS011;9548;56.920;14.804;2023-02-15T09:57:33;18.52;;;7.38;;
18838;SDS011;9548;56.920;14.804;2023-02-15T10:00:06;25.75;;;8.15;;
18838;SDS011;9548;56.920;14.804;2023-02-15T10:02:46;21.60;;;8.60;;
18838;SDS011;9548;56.920;14.804;2023-02-15T10:05:31;23.45;;;8.07;;
18838;SDS011;9548;56.920;14.804;2023-02-15T10:11:14;20.63;;;8.32;;
18838;SDS011;9548;56.920;14.804;2023-02-15T10:14:07;24.58;;;8.60;;
18838;SDS011;9548;56.920;14.804;2023-02-15T10:16:46;23.92;;;8.13;;
18838;SDS011;9548;56.920;14.804;2023-02-15T10:19:23;21.20;;;8.27;;
18838;SDS011;9548;56.920;14.804;2023-02-15T10:22:03;21.38;;;8.77;;
18838;SDS011;9548;56.920;14.804;2023-02-15T10:27:37;24.65;;;8.75;;
18838;SDS011;9548;56.920;14.804;2023-02-15T10:30:13;26.70;;;9.93;;
18838;SDS011;9548;56.920;14.804;2023-02-15T10:32:45;25.15;;;9.10;;
18838;SDS011;9548;56.920;14.804;2023-02-15T10:35:22;22.58;;;9.10;;
18838;SDS011;9548;56.920;14.804;2023-02-15T10:40:47;22.45;;;8.73;;
18838;SDS011;9548;56.920;14.804;2023-02-15T10:43:27;25.15;;;8.88;;
18838;SDS011;9548;56.920;14.804;2023-02-15T10:46:11;24.67;;;9.23;;
18838;SDS011;9548;56.920;14.804;2023-02-15T10:48:55;22.10;;;9.25;;
18838;SDS011;9548;56.920;14.804;2023-02-15T10:51:40;27.45;;;9.25;;
18838;SDS011;9548;56.920;14.804;2023-02-15T10:54:19;26.80;;;9.88;;
18838;SDS011;9548;56.920;14.804;2023-02-15T10:56:59;24.30;;;8.82;;
18838;SDS011;9548;56.920;14.804;2023-02-15T10:59:36;26.83;;;9.43;;
18838;SDS011;9548;56.920;14.804;2023-02-15T11:02:16;24.30;;;9.27;;
18838;SDS011;9548;56.920;14.804;2023-02-15T11:04:53;28.90;;;10.38;;
18838;SDS011;9548;56.920;14.804;2023-02-15T11:07:30;27.55;;;9.93;;
18838;SDS011;9548;56.920;14.804;2023-02-15T11:10:05;30.45;;;9.63;;
18838;SDS011;9548;56.920;14.804;2023-02-15T11:12:46;29.08;;;9.32;;
18838;SDS011;9548;56.920;14.804;2023-02-15T11:15:15;27.88;;;9.85;;
18838;SDS011;9548;56.920;14.804;2023-02-15T11:17:48;28.40;;;9.48;;
18838;SDS011;9548;56.920;14.804;2023-02-15T11:20:23;24.70;;;9.63;;
18838;SDS011;9548;56.920;14.804;2023-02-15T11:22:54;27.95;;;10.32;;
18838;SDS011;9548;56.920;14.804;2023-02-15T11:25:23;31.38;;;9.73;;
18838;SDS011;9548;56.920;14.804;2023-02-15T11:27:52;34.65;;;10.10;;
18838;SDS011;9548;56.920;14.804;2023-02-15T11:30:20;28.45;;;10.40;;
18838;SDS011;9548;56.920;14.804;2023-02-15T11:32:51;26.77;;;9.80;;
18838;SDS011;9548;56.920;14.804;2023-02-15T11:35:22;24.40;;;9.93;;
18838;SDS011;9548;56.920;14.804;2023-02-15T11:37:53;25.67;;;10.38;;
18838;SDS011;9548;56.920;14.804;2023-02-15T11:40:25;27.40;;;10.32;;
18838;SDS011;9548;56.920;14.804;2023-02-15T11:42:55;23.33;;;9.25;;
18838;SDS011;9548;56.920;14.804;2023-02-15T11:45:25;29.13;;;10.23;;
18838;SDS011;9548;56.920;14.804;2023-02-15T11:47:55;32.00;;;10.07;;
18838;SDS011;9548;56.920;14.804;2023-02-15T11:50:24;34.83;;;10.32;;
18838;SDS011;9548;56.920;14.804;2023-02-15T11:52:54;33.05;;;10.98;;
18838;SDS011;9548;56.920;14.804;2023-02-15T11:55:25;32.75;;;11.40;;
18838;SDS011;9548;56.920;14.804;2023-02-15T11:57:54;34.20;;;10.90;;
18838;SDS011;9548;56.920;14.804;2023-02-15T12:00:32;31.15;;;10.25;;
18838;SDS011;9548;56.920;14.804;2023-02-15T12:03:05;29.77;;;10.43;;
18838;SDS011;9548;56.920;14.804;2023-02-15T12:05:39;33.53;;;11.27;;
18838;SDS011;9548;56.920;14.804;2023-02-15T12:08:10;32.15;;;11.00;;
18838;SDS011;9548;56.920;14.804;2023-02-15T12:10:43;31.30;;;10.50;;
18838;SDS011;9548;56.920;14.804;2023-02-15T12:13:19;36.65;;;10.50;;
18838;SDS011;9548;56.920;14.804;2023-02-15T12:15:48;34.33;;;11.20;;
18838;SDS011;9548;56.920;14.804;2023-02-15T12:18:20;31.90;;;10.98;;
18838;SDS011;9548;56.920;14.804;2023-02-15T12:20:57;29.10;;;10.50;;
18838;SDS011;9548;56.920;14.804;2023-02-15T12:23:26;35.10;;;11.48;;
18838;SDS011;9548;56.920;14.804;2023-02-15T12:25:55;33.28;;;11.10;;
18838;SDS011;9548;56.920;14.804;2023-02-15T12:28:24;35.17;;;11.48;;
18838;SDS011;9548;56.920;14.804;2023-02-15T12:30:56;36.28;;;11.10;;
18838;SDS011;9548;56.920;14.804;2023-02-15T12:33:27;28.80;;;11.10;;
18838;SDS011;9548;56.920;14.804;2023-02-15T12:35:57;39.33;;;11.57;;
18838;SDS011;9548;56.920;14.804;2023-02-15T12:38:28;32.47;;;10.98;;
18838;SDS011;9548;56.920;14.804;2023-02-15T12:40:58;30.40;;;10.43;;
18838;SDS011;9548;56.920;14.804;2023-02-15T12:43:27;30.50;;;10.02;;
18838;SDS011;9548;56.920;14.804;2023-02-15T12:46:12;33.78;;;10.02;;
18838;SDS011;9548;56.920;14.804;2023-02-15T12:49:07;30.10;;;9.52;;
18838;SDS011;9548;56.920;14.804;2023-02-15T12:51:44;32.85;;;10.02;;
18838;SDS011;9548;56.920;14.804;2023-02-15T12:54:16;34.97;;;11.13;;
18838;SDS011;9548;56.920;14.804;2023-02-15T12:56:54;33.17;;;10.70;;
18838;SDS011;9548;56.920;14.804;2023-02-15T12:59:22;39.78;;;11.32;;
18838;SDS011;9548;56.920;14.804;2023-02-15T13:01:49;30.67;;;10.40;;
18838;SDS011;9548;56.920;14.804;2023-02-15T13:04:21;40.08;;;10.68;;
18838;SDS011;9548;56.920;14.804;2023-02-15T13:06:51;33.47;;;10.40;;
18838;SDS011;9548;56.920;14.804;2023-02-15T13:09:20;27.40;;;9.93;;
18838;SDS011;9548;56.920;14.804;2023-02-15T13:11:55;28.33;;;10.27;;
18838;SDS011;9548;56.920;14.804;2023-02-15T13:14:25;31.65;;;9.98;;
18838;SDS011;9548;56.920;14.804;2023-02-15T13:16:57;29.70;;;10.25;;
18838;SDS011;9548;56.920;14.804;2023-02-15T13:19:29;27.35;;;9.45;;
18838;SDS011;9548;56.920;14.804;2023-02-15T13:22:01;27.48;;;9.50;;
18838;SDS011;9548;56.920;14.804;2023-02-15T13:24:33;27.85;;;9.13;;
18838;SDS011;9548;56.920;14.804;2023-02-15T13:27:03;30.75;;;10.15;;
18838;SDS011;9548;56.920;14.804;2023-02-15T13:29:31;25.38;;;8.98;;
18838;SDS011;9548;56.920;14.804;2023-02-15T13:32:15;25.00;;;8.80;;
18838;SDS011;9548;56.920;14.804;2023-02-15T13:34:52;27.27;;;9.57;;
18838;SDS011;9548;56.920;14.804;2023-02-15T13:37:26;28.38;;;10.52;;
18838;SDS011;9548;56.920;14.804;2023-02-15T13:40:06;32.90;;;10.02;;
18838;SDS011;9548;56.920;14.804;2023-02-15T13:42:40;27.92;;;10.00;;
18838;SDS011;9548;56.920;14.804;2023-02-15T13:45:19;30.55;;;9.57;;
18838;SDS011;9548;56.920;14.804;2023-02-15T13:47:57;26.48;;;9.52;;
18838;SDS011;9548;56.920;14.804;2023-02-15T13:50:37;29.52;;;9.50;;
18838;SDS011;9548;56.920;14.804;2023-02-15T13:53:21;24.33;;;9.20;;
18838;SDS011;9548;56.920;14.804;2023-02-15T13:56:07;19.67;;;8.27;;
18838;SDS011;9548;56.920;14.804;2023-02-15T13:58:53;24.65;;;8.40;;
18838;SDS011;9548;56.920;14.804;2023-02-15T14:01:45;25.20;;;8.73;;
18838;SDS011;9548;56.920;14.804;2023-02-15T14:04:26;23.27;;;8.10;;
18838;SDS011;9548;56.920;14.804;2023-02-15T14:07:17;24.35;;;8.68;;
18838;SDS011;9548;56.920;14.804;2023-02-15T14:10:12;23.75;;;8.43;;
18838;SDS011;9548;56.920;14.804;2023-02-15T14:13:05;25.80;;;9.13;;
18838;SDS011;9548;56.920;14.804;2023-02-15T14:15:52;24.92;;;8.57;;
18838;SDS011;9548;56.920;14.804;2023-02-15T14:18:25;22.50;;;8.35;;
18838;SDS011;9548;56.920;14.804;2023-02-15T14:21:02;30.50;;;10.43;;
18838;SDS011;9548;56.920;14.804;2023-02-15T14:23:41;26.10;;;8.63;;
18838;SDS011;9548;56.920;14.804;2023-02-15T14:26:18;25.05;;;8.25;;
18838;SDS011;9548;56.920;14.804;2023-02-15T14:28:51;21.10;;;8.80;;
18838;SDS011;9548;56.920;14.804;2023-02-15T14:31:26;24.52;;;7.70;;
18838;SDS011;9548;56.920;14.804;2023-02-15T14:33:56;22.13;;;8.15;;
18838;SDS011;9548;56.920;14.804;2023-02-15T14:36:24;25.40;;;8.48;;
18838;SDS011;9548;56.920;14.804;2023-02-15T14:39:03;24.80;;;9.52;;
18838;SDS011;9548;56.920;14.804;2023-02-15T14:41:55;25.80;;;8.90;;
18838;SDS011;9548;56.920;14.804;2023-02-15T14:44:27;26.15;;;8.57;;
18838;SDS011;9548;56.920;14.804;2023-02-15T14:47:04;26.67;;;8.63;;
18838;SDS011;9548;56.920;14.804;2023-02-15T14:49:37;25.75;;;8.60;;
18838;SDS011;9548;56.920;14.804;2023-02-15T14:52:05;24.20;;;8.40;;
18838;SDS011;9548;56.920;14.804;2023-02-15T14:57:23;22.20;;;8.25;;
18838;SDS011;9548;56.920;14.804;2023-02-15T14:59:53;18.27;;;7.35;;
18838;SDS011;9548;56.920;14.804;2023-02-15T15:02:23;23.90;;;8.13;;
18838;SDS011;9548;56.920;14.804;2023-02-15T15:04:55;23.58;;;8.65;;
18838;SDS011;9548;56.920;14.804;2023-02-15T15:07:27;22.52;;;8.30;;
18838;SDS011;9548;56.920;14.804;2023-02-15T15:10:04;19.85;;;8.30;;
18838;SDS011;9548;56.920;14.804;2023-02-15T15:12:41;18.77;;;7.40;;
18838;SDS011;9548;56.920;14.804;2023-02-15T15:15:11;24.23;;;8.18;;
18838;SDS011;9548;56.920;14.804;2023-02-15T15:17:56;22.35;;;7.57;;
18838;SDS011;9548;56.920;14.804;2023-02-15T15:20:38;23.83;;;8.68;;
18838;SDS011;9548;56.920;14.804;2023-02-15T15:26:26;24.00;;;8.13;;
18838;SDS011;9548;56.920;14.804;2023-02-15T15:29:02;24.10;;;8.45;;
18838;SDS011;9548;56.920;14.804;2023-02-15T15:31:32;25.23;;;8.63;;
18838;SDS011;9548;56.920;14.804;2023-02-15T15:34:17;25.05;;;8.05;;
18838;SDS011;9548;56.920;14.804;2023-02-15T15:40:21;20.63;;;8.45;;
18838;SDS011;9548;56.920;14.804;2023-02-15T15:46:25;23.45;;;8.05;;
18838;SDS011;9548;56.920;14.804;2023-02-15T15:49:14;23.23;;;8.43;;
18838;SDS011;9548;56.920;14.804;2023-02-15T15:51:44;19.38;;;7.95;;
18838;SDS011;9548;56.920;14.804;2023-02-15T15:54:13;25.17;;;8.02;;
18838;SDS011;9548;56.920;14.804;2023-02-15T15:56:43;25.20;;;8.18;;
18838;SDS011;9548;56.920;14.804;2023-02-15T15:59:20;22.52;;;8.23;;
18838;SDS011;9548;56.920;14.804;2023-02-15T16:01:51;20.35;;;7.80;;
18838;SDS011;9548;56.920;14.804;2023-02-15T16:04:24;25.55;;;8.00;;
18838;SDS011;9548;56.920;14.804;2023-02-15T16:06:55;25.40;;;7.50;;
18838;SDS011;9548;56.920;14.804;2023-02-15T16:09:23;28.52;;;9.27;;
18838;SDS011;9548;56.920;14.804;2023-02-15T16:11:52;24.60;;;9.10;;
18838;SDS011;9548;56.920;14.804;2023-02-15T16:14:24;20.10;;;7.88;;
18838;SDS011;9548;56.920;14.804;2023-02-15T16:16:57;21.63;;;9.20;;
18838;SDS011;9548;56.920;14.804;2023-02-15T16:19:28;23.20;;;8.95;;
18838;SDS011;9548;56.920;14.804;2023-02-15T16:21:59;22.23;;;8.63;;
18838;SDS011;9548;56.920;14.804;2023-02-15T16:24:34;19.35;;;8.73;;
18838;SDS011;9548;56.920;14.804;2023-02-15T16:27:18;21.83;;;8.43;;
18838;SDS011;9548;56.920;14.804;2023-02-15T16:30:23;23.70;;;8.50;;
18838;SDS011;9548;56.920;14.804;2023-02-15T16:32:54;25.45;;;8.93;;
18838;SDS011;9548;56.920;14.804;2023-02-15T16:35:29;25.55;;;8.48;;
18838;SDS011;9548;56.920;14.804;2023-02-15T16:37:56;28.10;;;9.40;;
18838;SDS011;9548;56.920;14.804;2023-02-15T16:40:28;28.90;;;9.50;;
18838;SDS011;9548;56.920;14.804;2023-02-15T16:43:18;22.85;;;8.15;;
18838;SDS011;9548;56.920;14.804;2023-02-15T16:45:51;27.45;;;9.43;;
18838;SDS011;9548;56.920;14.804;2023-02-15T16:48:25;26.92;;;9.85;;
18838;SDS011;9548;56.920;14.804;2023-02-15T16:50:54;29.15;;;9.38;;
18838;SDS011;9548;56.920;14.804;2023-02-15T16:53:24;22.90;;;8.68;;
18838;SDS011;9548;56.920;14.804;2023-02-15T16:55:53;27.65;;;9.18;;
18838;SDS011;9548;56.920;14.804;2023-02-15T16:58:25;30.42;;;9.52;;
18838;SDS011;9548;56.920;14.804;2023-02-15T17:00:55;28.98;;;9.95;;
18838;SDS011;9548;56.920;14.804;2023-02-15T17:03:24;26.83;;;9.18;;
18838;SDS011;9548;56.920;14.804;2023-02-15T17:05:53;31.52;;;9.85;;
18838;SDS011;9548;56.920;14.804;2023-02-15T17:08:24;32.10;;;9.98;;
18838;SDS011;9548;56.920;14.804;2023-02-15T17:11:13;30.52;;;9.27;;
18838;SDS011;9548;56.920;14.804;2023-02-15T17:16:41;31.92;;;11.45;;
18838;SDS011;9548;56.920;14.804;2023-02-15T17:19:15;34.13;;;10.38;;
18838;SDS011;9548;56.920;14.804;2023-02-15T17:21:47;32.10;;;9.95;;
18838;SDS011;9548;56.920;14.804;2023-02-15T17:24:17;36.70;;;12.07;;
18838;SDS011;9548;56.920;14.804;2023-02-15T17:26:48;39.72;;;11.75;;
18838;SDS011;9548;56.920;14.804;2023-02-15T17:29:20;34.90;;;12.82;;
18838;SDS011;9548;56.920;14.804;2023-02-15T17:31:51;37.60;;;12.23;;
18838;SDS011;9548;56.920;14.804;2023-02-15T17:37:41;31.70;;;10.38;;
18838;SDS011;9548;56.920;14.804;2023-02-15T17:40:14;33.33;;;10.75;;
18838;SDS011;9548;56.920;14.804;2023-02-15T17:42:45;37.75;;;10.63;;
18838;SDS011;9548;56.920;14.804;2023-02-15T17:45:12;37.08;;;10.77;;
18838;SDS011;9548;56.920;14.804;2023-02-15T17:47:39;32.92;;;10.25;;
18838;SDS011;9548;56.920;14.804;2023-02-15T17:50:14;33.67;;;10.85;;
18838;SDS011;9548;56.920;14.804;2023-02-15T17:52:44;36.80;;;10.85;;
18838;SDS011;9548;56.920;14.804;2023-02-15T17:55:12;33.17;;;11.20;;
18838;SDS011;9548;56.920;14.804;2023-02-15T17:58:02;40.22;;;12.30;;
18838;SDS011;9548;56.920;14.804;2023-02-15T18:00:30;37.05;;;12.43;;
18838;SDS011;9548;56.920;14.804;2023-02-15T18:03:17;39.22;;;12.20;;
18838;SDS011;9548;56.920;14.804;2023-02-15T18:06:03;43.17;;;12.40;;
18838;SDS011;9548;56.920;14.804;2023-02-15T18:08:48;37.60;;;11.63;;
18838;SDS011;9548;56.920;14.804;2023-02-15T18:11:33;37.97;;;12.13;;
18838;SDS011;9548;56.920;14.804;2023-02-15T18:14:01;47.38;;;12.23;;
18838;SDS011;9548;56.920;14.804;2023-02-15T18:16:29;39.47;;;12.05;;
18838;SDS011;9548;56.920;14.804;2023-02-15T18:18:58;39.40;;;11.02;;
18838;SDS011;9548;56.920;14.804;2023-02-15T18:21:27;34.05;;;10.70;;
18838;SDS011;9548;56.920;14.804;2023-02-15T18:23:54;36.65;;;11.55;;
18838;SDS011;9548;56.920;14.804;2023-02-15T18:26:22;37.20;;;12.02;;
18838;SDS011;9548;56.920;14.804;2023-02-15T18:28:50;37.38;;;11.07;;
18838;SDS011;9548;56.920;14.804;2023-02-15T18:31:17;41.55;;;12.32;;
18838;SDS011;9548;56.920;14.804;2023-02-15T18:33:46;42.88;;;12.80;;
18838;SDS011;9548;56.920;14.804;2023-02-15T18:36:16;37.83;;;11.73;;
18838;SDS011;9548;56.920;14.804;2023-02-15T18:38:49;41.90;;;16.02;;
18838;SDS011;9548;56.920;14.804;2023-02-15T18:41:17;38.10;;;12.35;;
18838;SDS011;9548;56.920;14.804;2023-02-15T18:43:45;54.20;;;17.33;;
18838;SDS011;9548;56.920;14.804;2023-02-15T18:46:14;43.08;;;13.80;;
18838;SDS011;9548;56.920;14.804;2023-02-15T18:48:41;46.72;;;16.02;;
18838;SDS011;9548;56.920;14.804;2023-02-15T18:51:13;43.42;;;14.88;;
18838;SDS011;9548;56.920;14.804;2023-02-15T18:53:42;50.15;;;14.48;;